createdAt,value
2023-05-14T00:00:19.233Z,13.10
2023-05-14T00:02:48.108Z,13.63
2023-05-14T00:05:16.955Z,11.00
2023-05-14T00:07:46.765Z,11.60
2023-05-14T00:10:18.343Z,14.43
2023-05-14T00:12:54.310Z,15.07
2023-05-14T00:15:37.197Z,12.27
2023-05-14T00:18:10.439Z,13.43
2023-05-14T00:23:22.241Z,14.77
2023-05-14T00:25:51.315Z,14.07
2023-05-14T00:28:24.557Z,14.37
2023-05-14T00:30:55.117Z,13.90
2023-05-14T00:33:23.991Z,13.33
2023-05-14T00:35:53.693Z,15.30
2023-05-14T00:38:24.638Z,12.20
2023-05-14T00:40:58.040Z,13.77
2023-05-14T00:43:42.704Z,12.17
2023-05-14T00:46:28.056Z,11.33
2023-05-14T00:49:04.921Z,14.03
2023-05-14T00:51:46.937Z,13.37
2023-05-14T00:57:14.759Z,12.37
2023-05-14T01:02:53.412Z,13.33
2023-05-14T01:05:41.112Z,14.97
2023-05-14T01:08:37.465Z,11.83
2023-05-14T01:11:30.172Z,13.37
2023-05-14T01:14:17.642Z,14.37
2023-05-14T01:23:05.504Z,16.50
2023-05-14T01:29:00.564Z,15.63
2023-05-14T01:31:47.849Z,13.63
2023-05-14T01:34:37.871Z,13.23
2023-05-14T01:37:16.179Z,11.13
2023-05-14T01:40:10.311Z,13.63
2023-05-14T01:45:57.811Z,11.93
2023-05-14T01:48:41.745Z,13.83
2023-05-14T01:51:28.493Z,13.63
2023-05-14T01:54:05.414Z,13.27
2023-05-14T01:56:49.874Z,12.73
2023-05-14T01:59:48.348Z,14.77
2023-05-14T02:02:23.917Z,14.57
2023-05-14T02:04:58.070Z,15.23
2023-05-14T02:07:32.023Z,15.37
2023-05-14T02:10:17.304Z,20.03
2023-05-14T02:12:59.211Z,15.43
2023-05-14T02:15:53.897Z,15.93
2023-05-14T02:18:23.727Z,18.37
2023-05-14T02:21:00.100Z,17.23
2023-05-14T02:26:14.934Z,15.37
2023-05-14T02:28:45.826Z,13.53
2023-05-14T02:31:29.094Z,15.03
2023-05-14T02:34:00.146Z,18.73
2023-05-14T02:36:43.325Z,17.73
2023-05-14T02:39:28.728Z,15.20
2023-05-14T02:42:12.530Z,15.73
2023-05-14T02:44:41.842Z,12.93
2023-05-14T02:47:17.532Z,14.80
2023-05-14T02:49:52.641Z,15.90
2023-05-14T02:52:22.463Z,12.63
2023-05-14T02:54:54.416Z,14.23
2023-05-14T02:57:28.111Z,15.60
2023-05-14T02:59:59.745Z,13.43
2023-05-14T03:02:37.064Z,13.40
2023-05-14T03:05:06.868Z,15.43
2023-05-14T03:07:38.672Z,12.77
2023-05-14T03:10:09.699Z,12.90
2023-05-14T03:12:53.202Z,20.23
2023-05-14T03:18:18.402Z,12.77
2023-05-14T03:23:45.249Z,14.73
2023-05-14T03:26:15.251Z,16.57
2023-05-14T03:28:45.600Z,16.97
2023-05-14T03:31:15.415Z,12.37
2023-05-14T03:33:47.887Z,17.97
2023-05-14T03:36:17.823Z,15.27
2023-05-14T03:41:30.034Z,14.70
2023-05-14T03:44:00.061Z,16.00
2023-05-14T03:46:43.012Z,18.33
2023-05-14T03:49:13.988Z,15.70
2023-05-14T05:26:11.483Z,20.40
2023-05-14T05:28:42.358Z,21.60
2023-05-14T05:31:11.924Z,19.87
2023-05-14T05:33:42.812Z,19.27
2023-05-14T05:36:16.074Z,19.10
2023-05-14T05:38:45.280Z,23.00
2023-05-14T05:41:16.419Z,22.50
2023-05-14T05:43:45.581Z,25.67
2023-05-14T05:49:15.082Z,21.47
2023-05-14T05:51:45.121Z,22.43
2023-05-14T05:54:13.977Z,23.80
2023-05-14T06:15:00.472Z,22.40
2023-05-14T06:41:14.021Z,23.77
2023-05-14T06:44:05.294Z,21.23
2023-05-14T06:46:37.589Z,19.63
2023-05-14T06:51:50.934Z,22.17
2023-05-14T06:54:30.067Z,19.00
2023-05-14T06:56:59.310Z,18.97
2023-05-14T06:59:30.776Z,18.70
2023-05-14T07:02:06.510Z,19.87
2023-05-14T07:04:35.562Z,20.13
2023-05-14T07:07:06.309Z,17.47
2023-05-14T07:12:22.280Z,23.60
2023-05-14T07:17:49.584Z,20.57
2023-05-14T07:20:35.837Z,16.93
2023-05-14T07:25:47.432Z,16.07
2023-05-14T07:31:04.039Z,16.40
2023-05-14T07:45:47.728Z,17.30
2023-05-14T07:48:17.436Z,18.60
2023-05-14T08:24:51.860Z,14.60
2023-05-14T08:27:23.002Z,14.07
2023-05-14T08:29:52.518Z,17.63
2023-05-14T08:32:23.885Z,14.97
2023-05-14T08:34:52.779Z,15.77
2023-05-14T08:37:21.025Z,14.60
2023-05-14T08:39:49.225Z,17.73
2023-05-14T08:42:17.514Z,14.90
2023-05-14T08:44:50.140Z,18.90
2023-05-14T08:47:20.679Z,15.27
2023-05-14T08:49:49.654Z,16.00
2023-05-14T08:52:18.298Z,14.37
2023-05-14T08:54:48.497Z,14.63
2023-05-14T08:57:17.083Z,17.27
2023-05-14T08:59:47.274Z,19.17
2023-05-14T09:02:17.604Z,14.10
2023-05-14T09:04:47.994Z,13.03
2023-05-14T09:07:16.331Z,14.07
2023-05-14T09:09:46.074Z,12.93
2023-05-14T09:12:14.216Z,13.23
2023-05-14T09:14:42.916Z,13.40
2023-05-14T09:17:12.449Z,11.97
2023-05-14T09:19:41.156Z,10.47
2023-05-14T09:22:11.912Z,14.40
2023-05-14T09:24:40.217Z,10.50
2023-05-14T09:27:08.793Z,10.90
2023-05-14T09:29:37.215Z,11.73
2023-05-14T09:32:07.497Z,12.20
2023-05-14T09:34:37.956Z,9.87
2023-05-14T09:37:07.105Z,10.77
2023-05-14T09:39:37.327Z,12.50
2023-05-14T09:42:05.905Z,11.30
2023-05-14T09:44:36.425Z,9.90
2023-05-14T09:47:04.796Z,8.90
2023-05-14T09:49:32.944Z,11.10
2023-05-14T09:52:03.585Z,8.60
2023-05-14T09:54:33.187Z,10.63
2023-05-14T09:57:03.070Z,12.07
2023-05-14T09:59:32.442Z,9.83
2023-05-14T10:02:01.202Z,11.37
2023-05-14T10:04:29.472Z,11.03
2023-05-14T10:06:57.793Z,10.13
2023-05-14T10:09:29.448Z,9.10
2023-05-14T10:12:00.467Z,8.90
2023-05-14T10:14:33.551Z,9.70
2023-05-14T10:17:03.501Z,10.90
2023-05-14T10:19:32.547Z,8.20
2023-05-14T10:22:04.689Z,8.03
2023-05-14T10:24:33.304Z,10.00
2023-05-14T10:27:01.684Z,10.73
2023-05-14T10:29:53.847Z,8.87
2023-05-14T10:32:23.079Z,8.80
2023-05-14T10:34:51.285Z,10.77
2023-05-14T10:37:20.837Z,8.00
2023-05-14T10:39:50.002Z,10.13
2023-05-14T10:42:21.221Z,7.70
2023-05-14T10:44:52.933Z,6.83
2023-05-14T10:47:21.992Z,7.87
2023-05-14T10:49:50.599Z,8.63
2023-05-14T10:52:20.261Z,7.60
2023-05-14T10:54:51.581Z,8.40
2023-05-14T10:57:20.242Z,7.20
2023-05-14T10:59:49.435Z,6.47
2023-05-14T11:02:22.800Z,6.80
2023-05-14T11:04:54.354Z,7.83
2023-05-14T11:07:25.350Z,7.40
2023-05-14T11:09:53.620Z,6.73
2023-05-14T11:12:23.066Z,6.77
2023-05-14T11:14:52.360Z,6.23
2023-05-14T11:17:22.250Z,6.43
2023-05-14T11:19:51.240Z,9.07
2023-05-14T11:22:19.486Z,7.77
2023-05-14T11:24:47.667Z,7.23
2023-05-14T11:27:18.460Z,6.33
2023-05-14T11:29:47.319Z,6.43
2023-05-14T11:32:15.998Z,6.80
2023-05-14T11:34:46.126Z,6.67
2023-05-14T11:37:15.688Z,6.07
2023-05-14T11:39:48.743Z,6.47
2023-05-14T11:42:18.700Z,6.70
2023-05-14T11:44:47.536Z,8.27
2023-05-14T11:47:15.809Z,6.33
2023-05-14T11:49:44.145Z,5.90
2023-05-14T11:52:14.282Z,5.47
2023-05-14T11:54:43.109Z,6.27
2023-05-14T11:57:12.508Z,5.10
2023-05-14T11:59:41.373Z,5.37
2023-05-14T12:02:12.300Z,7.00
2023-05-14T12:04:41.505Z,5.33
2023-05-14T12:07:10.756Z,7.37
2023-05-14T12:09:45.083Z,5.90
2023-05-14T12:12:13.927Z,6.50
2023-05-14T12:14:43.590Z,5.13
2023-05-14T12:17:13.787Z,5.13
2023-05-14T12:19:42.769Z,6.27
2023-05-14T12:22:11.299Z,5.97
2023-05-14T12:24:41.144Z,5.43
2023-05-14T12:27:12.010Z,5.33
2023-05-14T12:29:40.627Z,6.17
2023-05-14T12:32:13.618Z,6.60
2023-05-14T12:34:42.245Z,7.20
2023-05-14T12:37:10.584Z,7.13
2023-05-14T12:39:38.819Z,6.07
2023-05-14T12:42:08.776Z,5.90
2023-05-14T12:44:36.994Z,5.33
2023-05-14T12:47:05.577Z,6.23
2023-05-14T12:49:33.852Z,6.40
2023-05-14T12:52:19.411Z,5.63
2023-05-14T12:54:50.114Z,5.63
2023-05-14T12:57:19.925Z,5.87
2023-05-14T12:59:48.212Z,5.50
2023-05-14T13:02:17.674Z,5.93
2023-05-14T13:04:46.045Z,5.77
2023-05-14T13:07:14.264Z,6.67
2023-05-14T13:09:42.712Z,5.23
2023-05-14T13:12:11.176Z,4.43
2023-05-14T13:14:40.924Z,5.17
2023-05-14T13:17:09.396Z,5.30
2023-05-14T13:19:37.651Z,6.07
2023-05-14T13:22:06.518Z,6.90
2023-05-14T13:24:34.659Z,5.10
2023-05-14T13:27:03.004Z,6.03
2023-05-14T13:29:31.510Z,5.43
2023-05-14T13:32:01.282Z,5.40
2023-05-14T13:34:29.564Z,5.53
2023-05-14T13:36:57.870Z,3.77
2023-05-14T13:39:27.195Z,4.63
2023-05-14T13:41:57.033Z,5.10
2023-05-14T13:44:25.331Z,4.27
2023-05-14T13:46:53.965Z,3.97
2023-05-14T13:49:23.550Z,4.13
2023-05-14T13:51:51.735Z,3.10
2023-05-14T13:54:19.967Z,4.10
2023-05-14T13:56:48.415Z,3.27
2023-05-14T13:59:16.565Z,3.63
2023-05-14T14:01:44.770Z,4.10
2023-05-14T14:04:15.987Z,3.10
2023-05-14T14:06:45.536Z,3.10
2023-05-14T14:09:16.270Z,3.57
2023-05-14T14:11:44.476Z,3.17
2023-05-14T14:14:12.849Z,3.43
2023-05-14T14:16:41.222Z,4.07
2023-05-14T14:19:10.155Z,3.97
2023-05-14T14:21:39.773Z,3.60
2023-05-14T14:24:09.397Z,3.33
2023-05-14T14:26:37.583Z,3.27
2023-05-14T14:29:05.828Z,3.10
2023-05-14T14:31:34.026Z,4.60
2023-05-14T14:34:02.262Z,3.67
2023-05-14T14:36:31.703Z,6.07
2023-05-14T14:38:59.892Z,4.40
2023-05-14T14:41:29.576Z,3.17
2023-05-14T14:43:57.777Z,3.87
2023-05-14T14:46:26.066Z,5.37
2023-05-14T14:48:54.378Z,3.40
2023-05-14T14:51:22.575Z,4.70
2023-05-14T14:53:50.864Z,4.23
2023-05-14T14:56:18.961Z,3.33
2023-05-14T14:58:48.811Z,5.47
2023-05-14T15:01:17.113Z,3.27
2023-05-14T15:03:45.633Z,4.10
2023-05-14T15:06:13.900Z,4.00
2023-05-14T15:08:42.282Z,3.93
2023-05-14T15:11:10.415Z,3.57
2023-05-14T15:13:40.799Z,3.27
2023-05-14T15:16:11.228Z,5.57
2023-05-14T15:18:39.467Z,3.33
2023-05-14T15:21:08.183Z,5.57
2023-05-14T15:23:36.525Z,4.33
2023-05-14T15:26:05.070Z,4.30
2023-05-14T15:28:33.276Z,3.27
2023-05-14T15:31:02.352Z,5.57
2023-05-14T15:33:31.831Z,4.10
2023-05-14T15:36:00.685Z,4.70
2023-05-14T15:38:31.941Z,4.63
2023-05-14T15:41:00.279Z,4.27
2023-05-14T15:43:28.511Z,3.67
2023-05-14T15:45:58.028Z,3.20
2023-05-14T15:48:26.187Z,6.13
2023-05-14T15:50:55.856Z,3.37
2023-05-14T15:53:23.986Z,1.77
2023-05-14T15:55:52.169Z,1.77
2023-05-14T15:58:20.667Z,2.23
2023-05-14T16:00:49.265Z,2.27
2023-05-14T16:03:17.616Z,4.83
2023-05-14T16:05:46.134Z,6.27
2023-05-14T16:08:16.687Z,3.43
2023-05-14T16:10:44.907Z,2.87
2023-05-14T16:13:13.093Z,5.27
2023-05-14T16:15:41.309Z,4.07
2023-05-14T16:18:09.686Z,4.77
2023-05-14T16:20:37.938Z,4.00
2023-05-14T16:23:06.125Z,3.30
2023-05-14T16:25:35.710Z,3.37
2023-05-14T16:28:04.325Z,5.90
2023-05-14T16:30:32.512Z,4.13
2023-05-14T16:33:00.739Z,5.27
2023-05-14T16:35:28.958Z,2.90
2023-05-14T16:37:57.807Z,3.37
2023-05-14T16:40:26.059Z,5.10
2023-05-14T16:42:55.746Z,3.10
2023-05-14T16:45:25.696Z,2.47
2023-05-14T16:47:54.139Z,3.73
2023-05-14T16:50:22.402Z,6.13
2023-05-14T16:52:50.611Z,3.07
2023-05-14T16:55:19.505Z,4.67
2023-05-14T16:57:47.694Z,3.83
2023-05-14T17:00:17.862Z,4.40
2023-05-14T17:02:49.046Z,3.47
2023-05-14T17:05:17.365Z,6.10
2023-05-14T17:07:45.564Z,3.80
2023-05-14T17:10:13.796Z,3.10
2023-05-14T17:12:41.953Z,3.23
2023-05-14T17:15:10.829Z,2.60
2023-05-14T17:17:40.612Z,3.60
2023-05-14T17:20:09.530Z,2.57
2023-05-14T17:22:37.710Z,2.63
2023-05-14T17:25:06.348Z,3.13
2023-05-14T17:27:34.512Z,3.77
2023-05-14T17:30:03.695Z,2.37
2023-05-14T17:32:32.078Z,2.40
2023-05-14T17:35:01.668Z,2.37
2023-05-14T17:37:29.902Z,2.37
2023-05-14T17:39:58.403Z,2.33
2023-05-14T17:42:26.655Z,2.70
2023-05-14T17:44:55.042Z,3.33
2023-05-14T17:47:23.230Z,2.33
2023-05-14T17:49:51.702Z,2.40
2023-05-14T17:52:21.331Z,2.13
2023-05-14T17:54:49.517Z,2.60
2023-05-14T17:57:17.742Z,1.90
2023-05-14T17:59:45.916Z,4.17
2023-05-14T18:02:14.047Z,2.67
2023-05-14T18:04:42.618Z,2.93
2023-05-14T18:07:10.773Z,2.30
2023-05-14T18:09:40.582Z,2.17
2023-05-14T18:12:09.988Z,3.07
2023-05-14T18:14:38.271Z,2.10
2023-05-14T18:17:06.959Z,2.67
2023-05-14T18:19:35.381Z,4.20
2023-05-14T18:22:04.281Z,2.07
2023-05-14T18:24:32.453Z,2.07
2023-05-14T18:27:02.275Z,2.47
2023-05-14T18:29:30.692Z,2.30
2023-05-14T18:31:58.946Z,2.20
2023-05-14T18:34:27.255Z,3.10
2023-05-14T18:36:55.678Z,2.47
2023-05-14T18:39:24.061Z,2.03
2023-05-14T18:41:52.440Z,2.90
2023-05-14T18:44:21.907Z,2.40
2023-05-14T18:46:50.671Z,2.43
2023-05-14T18:49:19.272Z,2.90
2023-05-14T18:51:47.490Z,2.77
2023-05-14T18:54:15.987Z,2.97
2023-05-14T18:56:47.416Z,3.97
2023-05-14T18:59:15.948Z,3.60
2023-05-14T19:01:45.688Z,2.90
2023-05-14T19:04:13.926Z,3.33
2023-05-14T19:06:42.454Z,3.17
2023-05-14T19:09:11.210Z,3.23
2023-05-14T19:11:39.386Z,3.40
2023-05-14T19:14:07.701Z,3.43
2023-05-14T19:16:38.191Z,3.97
2023-05-14T19:19:07.738Z,3.33
2023-05-14T19:21:36.062Z,4.97
2023-05-14T19:24:04.379Z,4.87
2023-05-14T19:26:32.551Z,3.23
2023-05-14T19:29:00.665Z,6.00
2023-05-14T19:31:29.439Z,4.27
2023-05-14T19:33:57.900Z,4.10
2023-05-14T19:36:27.449Z,4.33
2023-05-14T19:38:58.037Z,3.23
2023-05-14T19:41:26.227Z,6.33
2023-05-14T19:43:54.439Z,3.80
2023-05-14T19:46:22.830Z,4.50
2023-05-14T19:48:51.007Z,5.57
2023-05-14T19:51:19.127Z,3.70
2023-05-14T19:53:48.643Z,4.83
2023-05-14T19:56:16.849Z,3.77
2023-05-14T19:58:45.310Z,5.53
2023-05-14T20:01:14.630Z,5.07
2023-05-14T20:03:43.064Z,3.67
2023-05-14T20:06:12.366Z,4.30
2023-05-14T20:08:41.055Z,5.00
2023-05-14T20:11:10.957Z,5.93
2023-05-14T20:13:39.366Z,4.27
2023-05-14T20:16:07.870Z,4.67
2023-05-14T20:18:36.101Z,4.23
2023-05-14T20:21:04.423Z,6.30
2023-05-14T20:23:32.791Z,4.60
2023-05-14T20:26:01.684Z,4.37
2023-05-14T20:28:31.583Z,3.93
2023-05-14T20:31:00.209Z,4.70
2023-05-14T20:33:29.117Z,3.70
2023-05-14T20:35:57.449Z,5.80
2023-05-14T20:38:29.181Z,7.47
2023-05-14T20:40:57.670Z,4.30
2023-05-14T20:43:25.931Z,6.23
2023-05-14T20:45:56.744Z,2.90
2023-05-14T20:48:24.923Z,3.60
2023-05-14T20:50:53.045Z,3.43
2023-05-14T20:53:21.508Z,4.80
2023-05-14T20:55:49.676Z,5.10
2023-05-14T20:58:19.481Z,4.10
2023-05-14T21:00:48.608Z,4.40
2023-05-14T21:03:20.291Z,3.80
2023-05-14T21:05:50.208Z,3.20
2023-05-14T21:08:22.217Z,3.47
2023-05-14T21:13:45.228Z,3.90
2023-05-14T21:16:14.167Z,3.90
2023-05-14T21:18:44.309Z,5.20
2023-05-14T21:21:17.913Z,6.13
2023-05-14T21:23:47.211Z,4.80
2023-05-14T21:26:15.967Z,5.00
2023-05-14T21:28:44.953Z,3.90
2023-05-14T21:31:13.504Z,5.13
2023-05-14T21:33:42.406Z,5.03
2023-05-14T21:36:13.546Z,5.13
2023-05-14T21:41:34.495Z,5.03
2023-05-14T21:44:17.191Z,5.57
2023-05-14T21:47:03.399Z,6.57
2023-05-14T21:49:40.746Z,4.90
2023-05-14T21:52:29.983Z,5.90
2023-05-14T21:58:05.817Z,5.97
2023-05-14T22:00:42.790Z,7.23
2023-05-14T22:03:14.510Z,5.90
2023-05-14T22:05:49.901Z,5.40
2023-05-14T22:08:35.704Z,4.73
2023-05-14T22:11:18.245Z,7.33
2023-05-14T22:13:55.571Z,5.87
2023-05-14T22:16:46.572Z,4.80
2023-05-14T22:19:26.373Z,5.27
2023-05-14T22:25:12.039Z,5.40
2023-05-14T22:27:49.966Z,10.97
2023-05-14T22:33:37.636Z,4.63
2023-05-14T22:36:07.598Z,5.30
2023-05-14T22:38:37.634Z,5.53
2023-05-14T22:41:12.782Z,5.40
2023-05-14T22:43:50.878Z,6.80
2023-05-14T22:46:24.195Z,6.70
2023-05-14T22:48:55.538Z,6.53
2023-05-14T22:51:30.564Z,5.50
2023-05-14T22:54:06.268Z,5.60
2023-05-14T22:56:39.869Z,7.90
2023-05-14T22:59:18.379Z,5.10
2023-05-14T23:01:53.892Z,5.67
2023-05-14T23:04:32.704Z,6.40
2023-05-14T23:07:19.377Z,6.17
2023-05-14T23:10:02.925Z,5.50
2023-05-14T23:12:52.604Z,6.30
2023-05-14T23:15:28.472Z,5.60
2023-05-14T23:18:00.137Z,6.07
2023-05-14T23:20:34.609Z,5.60
2023-05-14T23:23:04.624Z,6.00
2023-05-14T23:25:36.141Z,5.63
2023-05-14T23:28:20.798Z,6.00
2023-05-14T23:34:09.876Z,6.20
2023-05-14T23:36:54.146Z,5.93
2023-05-14T23:39:36.815Z,5.80
2023-05-14T23:42:08.315Z,7.57
2023-05-14T23:44:48.623Z,6.83
2023-05-14T23:47:18.054Z,6.47
2023-05-14T23:49:51.008Z,4.50
2023-05-14T23:52:23.597Z,6.03
2023-05-14T23:54:55.458Z,5.43
2023-05-14T23:57:25.081Z,5.70
2023-05-14T23:59:58.338Z,4.40
